Time;durP1;ratioP1;P1;durP2;ratioP2;P2;SDS_P1;SDS_P2;PMS_P1;PMS_P2;Temp;Humidity;BMP_temperature;BMP_pressure;BME280_temperature;BME280_humidity;BME280_pressure;Samples;Min_cycle;Max_cycle;Signal;HPM_P1;HPM_P2
2022/06/15 00:00:42;;;;;;;5.00;4.50;;;18.50;41.30;;;;;;5048492;28;20457;-78
2022/06/15 00:03:10;;;;;;;5.50;4.50;;;18.50;41.40;;;;;;5047180;28;20449;-79
2022/06/15 00:05:38;;;;;;;5.40;4.10;;;18.50;41.40;;;;;;5055112;28;20454;-79
2022/06/15 00:08:05;;;;;;;4.30;3.90;;;18.50;41.00;;;;;;5051463;28;20498;-79
2022/06/15 00:10:32;;;;;;;5.07;4.47;;;18.50;41.40;;;;;;5056965;28;20478;-79
2022/06/15 00:12:59;;;;;;;7.10;4.60;;;18.50;41.50;;;;;;5049928;28;20812;-80
2022/06/15 00:15:26;;;;;;;4.83;4.30;;;18.40;41.50;;;;;;5040440;28;20481;-79
2022/06/15 00:17:53;;;;;;;4.73;4.23;;;18.30;41.80;;;;;;5052577;28;20488;-78
2022/06/15 00:20:20;;;;;;;5.80;4.20;;;18.30;42.00;;;;;;5057800;28;20485;-77
2022/06/15 00:22:48;;;;;;;5.90;4.60;;;18.20;42.00;;;;;;5051960;28;20492;-79
2022/06/15 00:25:15;;;;;;;7.03;4.40;;;18.20;42.00;;;;;;5052735;28;20461;-80
2022/06/15 00:27:42;;;;;;;6.17;4.17;;;18.20;41.80;;;;;;5053204;28;20476;-80
2022/06/15 00:30:10;;;;;;;6.47;3.80;;;18.20;41.90;;;;;;5048727;28;20467;-81
2022/06/15 00:32:38;;;;;;;5.23;4.00;;;18.10;41.80;;;;;;5056034;28;20446;-80
2022/06/15 00:35:06;;;;;;;5.40;4.27;;;18.00;42.00;;;;;;5054460;28;20433;-79
2022/06/15 00:37:36;;;;;;;8.00;3.50;;;18.00;42.20;;;;;;5055598;28;20476;-77
2022/06/15 00:40:06;;;;;;;5.03;4.00;;;18.00;42.10;;;;;;5058450;28;20457;-80
2022/06/15 00:42:32;;;;;;;5.17;4.03;;;18.00;42.00;;;;;;5058219;28;20526;-80
2022/06/15 00:44:59;;;;;;;5.57;3.73;;;18.00;41.80;;;;;;5055785;28;20432;-80
2022/06/15 00:47:31;;;;;;;5.20;4.33;;;17.90;41.90;;;;;;5057162;28;20447;-79
2022/06/15 00:50:02;;;;;;;6.60;4.33;;;17.90;41.90;;;;;;5057378;28;20509;-80
2022/06/15 00:52:33;;;;;;;5.13;4.13;;;18.00;41.60;;;;;;5057698;28;20421;-80
2022/06/15 00:55:04;;;;;;;5.70;3.87;;;18.00;41.30;;;;;;5057435;28;20401;-79
2022/06/15 00:57:32;;;;;;;5.60;4.50;;;18.10;41.20;;;;;;5057168;28;20472;-80
2022/06/15 01:00:01;;;;;;;5.50;4.50;;;18.10;41.00;;;;;;5053186;28;20449;-80
2022/06/15 01:02:29;;;;;;;5.80;4.20;;;18.10;40.90;;;;;;5049762;28;20485;-80
2022/06/15 01:04:59;;;;;;;4.10;3.70;;;18.10;41.20;;;;;;5053098;28;20477;-78
2022/06/15 01:08:11;;;;;;;11.43;4.17;;;18.00;41.00;;;;;;5051633;28;20480;-78
2022/06/15 01:11:06;;;;;;;4.33;3.93;;;18.00;41.50;;;;;;5051341;28;20481;-78
2022/06/15 01:14:04;;;;;;;4.80;3.90;;;17.90;41.40;;;;;;5053774;28;20476;-78
2022/06/15 01:16:40;;;;;;;4.63;4.03;;;17.90;41.60;;;;;;5051194;28;20538;-78
2022/06/15 01:19:28;;;;;;;5.07;4.03;;;17.90;41.60;;;;;;5044449;28;20515;-79
2022/06/15 01:22:07;;;;;;;5.07;3.93;;;17.90;41.70;;;;;;5053250;28;20458;-79
2022/06/15 01:25:00;;;;;;;5.20;3.87;;;17.80;41.80;;;;;;5042114;28;20457;-79
2022/06/15 01:27:55;;;;;;;5.20;3.70;;;17.80;41.70;;;;;;5042410;28;20516;-80
2022/06/15 01:30:29;;;;;;;5.10;4.30;;;17.80;42.10;;;;;;5042091;28;20482;-79
2022/06/15 01:33:08;;;;;;;4.53;4.13;;;17.70;42.40;;;;;;5044243;28;20470;-79
2022/06/15 01:35:45;;;;;;;4.70;4.30;;;17.60;42.50;;;;;;5049577;28;20541;-79
2022/06/15 01:38:21;;;;;;;6.67;4.43;;;17.60;42.80;;;;;;5050013;28;20506;-79
2022/06/15 01:40:52;;;;;;;4.67;3.80;;;17.50;42.90;;;;;;5041849;28;20449;-80
2022/06/15 01:43:22;;;;;;;7.10;4.53;;;17.50;43.30;;;;;;5036016;28;20486;-77
2022/06/15 01:45:51;;;;;;;3.90;3.60;;;17.40;43.50;;;;;;5037955;28;20999;-77
2022/06/15 01:48:19;;;;;;;4.83;4.17;;;17.40;43.80;;;;;;5038544;28;20706;-78
2022/06/15 01:50:49;;;;;;;6.80;4.57;;;17.40;43.80;;;;;;5038653;28;20580;-77
2022/06/15 01:53:23;;;;;;;5.90;3.97;;;17.30;44.00;;;;;;5039093;28;20464;-79
2022/06/15 01:55:54;;;;;;;4.30;3.70;;;17.30;44.20;;;;;;5040311;28;20544;-80
2022/06/15 01:58:24;;;;;;;4.90;4.50;;;17.30;44.40;;;;;;5041194;28;20430;-79
2022/06/15 02:00:57;;;;;;;6.57;3.90;;;17.20;45.10;;;;;;5040570;28;20489;-79
2022/06/15 02:03:30;;;;;;;6.47;4.97;;;17.10;45.60;;;;;;5040590;28;20448;-79
2022/06/15 02:06:03;;;;;;;5.87;4.40;;;17.00;46.00;;;;;;5041167;28;20524;-80
2022/06/15 02:08:39;;;;;;;5.70;4.37;;;16.90;45.90;;;;;;5039963;28;20457;-79
2022/06/15 02:11:13;;;;;;;5.03;4.53;;;16.80;46.40;;;;;;5039692;28;20585;-79
2022/06/15 02:13:46;;;;;;;4.70;4.30;;;16.70;47.10;;;;;;5022512;28;20430;-79
2022/06/15 02:16:19;;;;;;;5.93;4.60;;;16.60;47.80;;;;;;5039616;28;20488;-80
2022/06/15 02:18:47;;;;;;;5.90;4.00;;;16.60;48.30;;;;;;5039227;28;20478;-79
2022/06/15 02:21:18;;;;;;;7.60;4.87;;;16.50;48.30;;;;;;5038987;28;20453;-80
2022/06/15 02:23:48;;;;;;;5.50;4.80;;;16.50;48.70;;;;;;5051462;28;20442;-79
2022/06/15 02:26:18;;;;;;;4.50;4.10;;;16.40;49.00;;;;;;5053482;28;20460;-79
2022/06/15 02:28:49;;;;;;;5.20;4.70;;;16.40;49.30;;;;;;5052243;28;20493;-78
2022/06/15 02:31:17;;;;;;;5.13;4.27;;;16.40;49.40;;;;;;5056834;28;20523;-79
2022/06/15 02:33:48;;;;;;;5.13;4.50;;;16.30;49.60;;;;;;5040500;28;20965;-79
2022/06/15 02:36:16;;;;;;;5.20;4.80;;;16.30;49.50;;;;;;5041057;28;20504;-80
2022/06/15 02:38:46;;;;;;;6.60;4.93;;;16.30;49.90;;;;;;5039951;28;20424;-80
2022/06/15 02:41:14;;;;;;;5.30;4.63;;;16.20;50.20;;;;;;5040258;28;20436;-78
2022/06/15 02:43:42;;;;;;;5.80;4.93;;;16.30;50.40;;;;;;5039176;28;20521;-78
2022/06/15 02:46:11;;;;;;;4.77;4.27;;;16.40;50.00;;;;;;5039150;28;20476;-78
2022/06/15 02:48:41;;;;;;;5.80;4.20;;;16.40;49.20;;;;;;5043263;28;20485;-79
2022/06/15 02:51:14;;;;;;;4.90;4.40;;;16.30;49.10;;;;;;5041472;28;20491;-78
2022/06/15 02:53:42;;;;;;;4.57;4.17;;;16.30;49.20;;;;;;5042602;28;20529;-78
2022/06/15 02:56:13;;;;;;;4.83;4.40;;;16.30;49.50;;;;;;5041738;28;20440;-79
2022/06/15 02:58:43;;;;;;;6.47;4.50;;;16.30;49.30;;;;;;5041810;28;20965;-77
2022/06/15 03:01:10;;;;;;;4.27;3.90;;;16.30;49.10;;;;;;5048036;28;20468;-78
2022/06/15 03:03:40;;;;;;;4.97;4.47;;;16.30;49.10;;;;;;5053643;28;20454;-78
2022/06/15 03:06:09;;;;;;;4.27;3.87;;;16.30;49.00;;;;;;5058188;28;20508;-79
2022/06/15 03:08:36;;;;;;;4.20;3.90;;;16.40;48.30;;;;;;5040769;28;20413;-78
2022/06/15 03:11:03;;;;;;;7.03;4.20;;;16.40;48.30;;;;;;5039760;28;20547;-80
2022/06/15 03:13:30;;;;;;;4.10;3.70;;;16.40;47.90;;;;;;5042626;28;20527;-78
2022/06/15 03:15:58;;;;;;;6.50;4.60;;;16.30;47.90;;;;;;5057841;28;20456;-77
2022/06/15 03:18:25;;;;;;;5.60;5.00;;;16.20;48.40;;;;;;5058620;28;20458;-77
2022/06/15 03:20:56;;;;;;;5.50;4.50;;;16.20;49.10;;;;;;5057954;28;20408;-78
2022/06/15 03:23:23;;;;;;;5.67;4.50;;;16.30;49.90;;;;;;5058863;28;20470;-78
2022/06/15 03:25:53;;;;;;;4.97;4.57;;;16.20;50.30;;;;;;5058789;28;20533;-80
2022/06/15 03:28:20;;;;;;;6.63;4.80;;;16.20;50.70;;;;;;5059347;28;20425;-80
2022/06/15 03:30:47;;;;;;;6.37;5.50;;;16.10;51.10;;;;;;5058740;28;20448;-79
2022/06/15 03:33:14;;;;;;;7.90;5.40;;;15.90;52.10;;;;;;5057767;28;20528;-77
2022/06/15 03:35:41;;;;;;;5.30;4.80;;;15.80;52.90;;;;;;5057271;28;20465;-79
2022/06/15 03:38:09;;;;;;;6.40;4.90;;;15.70;53.10;;;;;;5058370;28;20501;-80
2022/06/15 03:40:37;;;;;;;5.43;4.93;;;15.60;54.30;;;;;;5056771;28;20452;-79
2022/06/15 03:43:04;;;;;;;5.60;5.10;;;15.60;54.40;;;;;;5052175;28;20472;-80
2022/06/15 03:45:31;;;;;;;6.40;4.60;;;15.50;54.30;;;;;;5055206;28;20408;-79
2022/06/15 03:47:58;;;;;;;9.60;5.30;;;15.40;54.30;;;;;;5055301;28;20581;-79
2022/06/15 03:50:27;;;;;;;7.17;5.13;;;15.30;55.10;;;;;;5052324;28;20450;-80
2022/06/15 03:52:55;;;;;;;6.20;5.40;;;15.30;55.60;;;;;;5050375;28;20487;-79
2022/06/15 03:55:23;;;;;;;6.80;5.00;;;15.20;55.40;;;;;;5052914;28;20461;-79
2022/06/15 03:57:50;;;;;;;7.13;5.47;;;15.30;55.70;;;;;;5041639;28;20477;-80
2022/06/15 04:00:20;;;;;;;5.80;5.20;;;15.20;56.20;;;;;;5039471;28;20561;-80
2022/06/15 04:02:47;;;;;;;9.20;5.20;;;15.20;56.10;;;;;;5026756;28;20440;-81
2022/06/15 04:05:18;;;;;;;6.23;5.47;;;15.20;56.50;;;;;;5029929;28;20473;-81
2022/06/15 04:10:42;;;;;;;6.43;5.83;;;15.20;57.30;;;;;;4982866;28;20480;-80
2022/06/15 04:13:09;;;;;;;6.13;5.63;;;15.30;56.80;;;;;;5028340;28;20553;-79
2022/06/15 04:15:36;;;;;;;6.43;5.40;;;15.30;56.90;;;;;;5037243;28;20515;-80
2022/06/15 04:18:03;;;;;;;5.73;5.17;;;15.30;56.90;;;;;;5038304;28;20474;-81
2022/06/15 04:20:33;;;;;;;7.87;5.33;;;15.40;57.00;;;;;;5027441;28;20852;-80
2022/06/15 04:23:01;;;;;;;6.03;5.43;;;15.40;57.00;;;;;;5037162;28;20476;-81
2022/06/15 04:25:29;;;;;;;7.33;5.70;;;15.50;57.00;;;;;;5036339;28;20447;-82
2022/06/15 04:27:58;;;;;;;6.40;4.80;;;15.60;56.30;;;;;;5037897;28;20472;-81
2022/06/15 04:30:26;;;;;;;6.10;4.80;;;15.80;55.80;;;;;;5039466;28;20465;-79
2022/06/15 04:32:53;;;;;;;8.63;4.83;;;16.00;55.40;;;;;;5041736;28;20494;-77
2022/06/15 04:35:21;;;;;;;5.37;4.87;;;16.10;54.90;;;;;;5040184;28;20549;-78
2022/06/15 04:37:48;;;;;;;5.17;4.67;;;16.20;55.00;;;;;;5041485;28;20473;-78
2022/06/15 04:40:15;;;;;;;5.73;4.60;;;16.30;53.50;;;;;;5038471;28;20456;-77
2022/06/15 04:42:43;;;;;;;5.43;4.70;;;16.40;52.80;;;;;;5047543;28;20418;-78
2022/06/15 04:45:13;;;;;;;7.13;5.27;;;16.50;52.70;;;;;;5053994;28;20434;-76
2022/06/15 04:47:40;;;;;;;6.50;4.23;;;16.70;52.60;;;;;;5100316;22;20570;-79
2022/06/15 04:50:10;;;;;;;5.27;4.77;;;16.90;52.00;;;;;;5100268;28;20467;-80
2022/06/15 04:52:40;;;;;;;4.90;4.50;;;17.20;50.40;;;;;;5099848;28;20579;-79
2022/06/15 04:55:08;;;;;;;6.93;4.80;;;17.70;49.40;;;;;;5101987;28;20466;-80
2022/06/15 04:57:38;;;;;;;7.00;5.00;;;18.30;47.30;;;;;;5107162;28;20464;-78
2022/06/15 05:00:07;;;;;;;7.37;4.83;;;19.30;45.80;;;;;;5108899;28;20436;-80
2022/06/15 05:02:36;;;;;;;8.73;4.33;;;20.50;41.80;;;;;;5113204;28;20485;-79
2022/06/15 05:05:03;;;;;;;5.70;4.30;;;21.60;38.70;;;;;;5114688;28;20532;-79
2022/06/15 05:07:30;;;;;;;7.43;4.77;;;22.40;35.40;;;;;;5115872;28;20513;-79
2022/06/15 05:09:57;;;;;;;6.60;4.00;;;23.20;33.60;;;;;;5116258;27;20439;-79
2022/06/15 05:12:24;;;;;;;4.60;4.10;;;24.00;32.20;;;;;;5116272;28;20529;-80
2022/06/15 05:14:52;;;;;;;6.17;4.67;;;24.60;30.20;;;;;;5115486;28;20441;-79
2022/06/15 05:17:20;;;;;;;8.33;4.50;;;25.50;28.70;;;;;;5111740;28;20840;-78
2022/06/15 05:19:48;;;;;;;11.63;4.40;;;25.90;27.20;;;;;;5105779;28;20595;-78
2022/06/15 05:22:20;;;;;;;5.33;4.70;;;25.70;27.20;;;;;;5110036;28;20455;-80
2022/06/15 05:24:47;;;;;;;5.97;4.03;;;25.50;27.30;;;;;;5116464;28;20423;-77
2022/06/15 05:27:15;;;;;;;5.53;3.33;;;25.60;27.20;;;;;;5116219;28;20520;-78
2022/06/15 05:29:42;;;;;;;6.47;4.63;;;25.80;27.40;;;;;;5116891;28;20468;-76
2022/06/15 05:34:55;;;;;;;6.33;4.07;;;26.00;26.60;;;;;;5112776;28;20781;-77
2022/06/15 05:37:22;;;;;;;5.67;3.83;;;27.00;25.40;;;;;;5111556;28;20497;-79
2022/06/15 05:39:50;;;;;;;4.40;3.83;;;27.80;24.00;;;;;;5112437;28;20538;-77
2022/06/15 05:42:17;;;;;;;6.33;3.97;;;27.80;23.60;;;;;;5111851;28;20489;-78
2022/06/15 05:44:47;;;;;;;4.20;3.80;;;27.90;23.50;;;;;;5108790;28;20941;-78
2022/06/15 05:47:16;;;;;;;8.00;3.80;;;28.20;23.00;;;;;;5107402;28;20485;-78
2022/06/15 05:49:43;;;;;;;9.30;4.40;;;28.40;22.50;;;;;;5098012;28;20462;-77
2022/06/15 05:52:12;;;;;;;5.53;3.80;;;28.70;22.10;;;;;;5098279;28;21016;-78
2022/06/15 05:54:39;;;;;;;6.97;3.60;;;28.50;22.40;;;;;;5098244;28;20947;-78
2022/06/15 05:57:12;;;;;;;4.87;3.20;;;27.70;23.60;;;;;;5106414;28;20470;-79
2022/06/15 05:59:39;;;;;;;7.23;4.17;;;27.90;23.00;;;;;;5103621;28;20551;-77
2022/06/15 06:02:06;;;;;;;4.80;3.60;;;28.20;22.50;;;;;;5099211;28;20599;-78
2022/06/15 06:04:33;;;;;;;5.37;3.40;;;28.50;21.70;;;;;;5110921;28;20440;-78
2022/06/15 06:07:00;;;;;;;7.67;4.00;;;28.60;21.70;;;;;;5107077;28;20615;-79
2022/06/15 06:09:29;;;;;;;6.70;4.27;;;28.80;21.30;;;;;;5104320;28;20969;-78
2022/06/15 06:11:56;;;;;;;7.97;4.57;;;28.60;21.40;;;;;;5107655;28;20489;-78
2022/06/15 06:14:23;;;;;;;4.23;3.53;;;28.30;22.10;;;;;;5103321;28;20475;-78
2022/06/15 06:16:50;;;;;;;3.63;3.33;;;27.70;24.00;;;;;;5103603;28;20470;-79
2022/06/15 06:19:17;;;;;;;8.33;4.43;;;27.70;23.90;;;;;;5100939;28;20944;-77
2022/06/15 06:21:44;;;;;;;6.20;4.40;;;27.50;24.50;;;;;;5097406;28;20530;-78
2022/06/15 06:24:11;;;;;;;6.33;4.20;;;27.30;24.40;;;;;;5098562;28;20520;-78
2022/06/15 06:26:42;;;;;;;9.40;4.63;;;27.20;24.30;;;;;;5099579;28;20569;-79
2022/06/15 06:29:14;;;;;;;7.27;3.90;;;27.20;24.70;;;;;;5098596;28;20459;-79
2022/06/15 06:31:41;;;;;;;5.00;4.07;;;27.20;24.70;;;;;;5100879;28;20480;-78
2022/06/15 06:34:07;;;;;;;8.70;4.27;;;27.60;24.10;;;;;;5099509;28;20476;-78
2022/06/15 06:36:38;;;;;;;6.60;4.30;;;27.90;23.10;;;;;;5106116;28;20455;-79
2022/06/15 06:39:13;;;;;;;4.37;3.97;;;27.40;23.90;;;;;;5109406;28;20922;-79
2022/06/15 06:41:42;;;;;;;8.03;4.37;;;27.30;24.10;;;;;;5106944;28;20543;-79
2022/06/15 06:44:10;;;;;;;5.30;4.60;;;27.30;24.00;;;;;;5107459;28;20469;-80
2022/06/15 06:46:38;;;;;;;4.93;3.77;;;27.20;24.20;;;;;;5104467;28;20500;-78
2022/06/15 06:49:06;;;;;;;6.77;4.90;;;26.70;25.20;;;;;;5108510;28;20541;-80
2022/06/15 06:51:35;;;;;;;4.47;4.07;;;27.30;24.40;;;;;;5108640;28;20448;-78
2022/06/15 06:54:02;;;;;;;6.30;4.20;;;27.20;24.70;;;;;;5107806;28;20456;-78
2022/06/15 06:56:29;;;;;;;5.30;4.23;;;27.70;23.80;;;;;;5104891;28;20443;-79
2022/06/15 06:58:57;;;;;;;5.83;4.00;;;27.60;23.60;;;;;;5106240;28;20810;-79
2022/06/15 07:01:24;;;;;;;4.80;4.30;;;27.30;24.30;;;;;;5103670;28;20974;-78
2022/06/15 07:04:40;;;;;;;6.03;4.20;;;27.20;24.30;;;;;;5106237;28;20443;-79
2022/06/15 07:07:07;;;;;;;5.33;4.83;;;26.50;25.10;;;;;;5100447;28;20519;-78
2022/06/15 07:09:34;;;;;;;6.20;4.40;;;25.50;27.20;;;;;;5104069;28;20525;-79
2022/06/15 07:12:01;;;;;;;5.27;4.50;;;24.70;27.80;;;;;;5104619;28;20512;-79
2022/06/15 07:14:30;;;;;;;10.97;4.43;;;24.20;28.70;;;;;;5102553;28;20572;-79
2022/06/15 07:16:57;;;;;;;6.50;4.30;;;23.70;29.90;;;;;;5100842;28;20906;-78
2022/06/15 07:19:24;;;;;;;6.20;4.70;;;23.40;30.10;;;;;;5106865;28;20438;-79
2022/06/15 07:21:51;;;;;;;6.03;4.57;;;23.00;31.30;;;;;;5109614;28;20515;-80
2022/06/15 07:24:18;;;;;;;5.30;4.50;;;22.90;31.10;;;;;;5109939;28;20824;-78
2022/06/15 07:26:47;;;;;;;7.70;4.70;;;22.80;31.10;;;;;;5110177;28;20467;-79
2022/06/15 07:29:17;;;;;;;6.67;4.33;;;22.60;31.20;;;;;;5114924;28;20443;-80
2022/06/15 07:31:48;;;;;;;5.00;4.60;;;22.90;31.10;;;;;;5118056;28;20462;-80
2022/06/15 07:34:15;;;;;;;5.90;5.27;;;22.90;31.10;;;;;;5118955;28;20429;-81
2022/06/15 07:36:46;;;;;;;6.40;4.77;;;23.00;31.30;;;;;;5118468;28;20479;-80
2022/06/15 07:39:15;;;;;;;5.47;4.67;;;22.90;31.10;;;;;;5119015;28;20420;-80
2022/06/15 07:41:42;;;;;;;7.67;4.53;;;23.10;31.40;;;;;;5117165;28;20515;-80
2022/06/15 07:44:09;;;;;;;6.43;5.03;;;23.30;31.00;;;;;;5117045;28;20566;-80
2022/06/15 07:46:36;;;;;;;8.90;6.90;;;23.40;30.30;;;;;;5113962;28;20472;-80
2022/06/15 07:51:53;;;;;;;7.77;5.10;;;23.00;31.30;;;;;;5113031;28;20487;-79
2022/06/15 07:54:21;;;;;;;5.63;5.10;;;23.10;31.40;;;;;;5111410;28;20515;-79
2022/06/15 07:56:49;;;;;;;8.03;5.00;;;23.30;31.00;;;;;;5105115;28;20492;-79
2022/06/15 07:59:17;;;;;;;5.23;4.67;;;23.30;31.50;;;;;;5103093;28;20942;-80
2022/06/15 08:01:45;;;;;;;7.20;4.83;;;23.30;30.20;;;;;;5106158;28;20485;-80
2022/06/15 08:04:14;;;;;;;4.93;4.43;;;23.40;29.80;;;;;;5104822;28;20413;-79
2022/06/15 08:06:44;;;;;;;5.97;4.83;;;23.50;30.40;;;;;;5110338;28;20572;-80
2022/06/15 08:09:13;;;;;;;8.53;4.40;;;23.70;30.00;;;;;;5112267;28;20454;-80
2022/06/15 08:12:11;;;;;;;8.60;5.10;;;23.80;29.00;;;;;;5110067;28;20541;-80
2022/06/15 08:14:31;;;;;;;5.03;4.53;;;23.90;28.90;;;;;;5105544;28;20500;-80
2022/06/15 08:16:59;;;;;;;10.40;4.80;;;24.10;28.10;;;;;;5112497;28;20464;-80
2022/06/15 08:19:28;;;;;;;7.10;5.10;;;24.30;28.00;;;;;;5117619;27;20411;-80
2022/06/15 08:21:55;;;;;;;6.27;4.80;;;24.50;28.10;;;;;;5117789;28;20423;-81
2022/06/15 08:24:24;;;;;;;4.90;4.33;;;24.40;28.30;;;;;;5118280;28;20454;-80
2022/06/15 08:26:51;;;;;;;7.50;4.37;;;24.40;28.40;;;;;;5117879;28;20483;-80
2022/06/15 08:29:19;;;;;;;5.80;4.50;;;24.40;28.40;;;;;;5118257;28;20452;-81
2022/06/15 08:31:46;;;;;;;7.57;4.70;;;24.50;28.00;;;;;;5118033;28;20503;-79
2022/06/15 08:34:13;;;;;;;4.87;4.00;;;24.60;28.10;;;;;;5118038;28;20499;-80
2022/06/15 08:36:42;;;;;;;5.43;4.40;;;24.60;28.10;;;;;;5118234;28;20484;-80
2022/06/15 08:39:09;;;;;;;7.73;4.53;;;24.80;27.40;;;;;;5117787;28;20467;-78
2022/06/15 08:41:46;;;;;;;4.87;4.27;;;24.80;27.20;;;;;;5117058;28;20440;-78
2022/06/15 08:44:24;;;;;;;6.40;4.50;;;25.00;27.20;;;;;;5113097;28;20432;-79
2022/06/15 08:47:01;;;;;;;6.90;4.33;;;25.10;27.80;;;;;;5110112;28;20526;-78
2022/06/15 08:49:47;;;;;;;8.40;4.67;;;25.00;27.20;;;;;;5105238;28;20485;-78
2022/06/15 08:52:20;;;;;;;7.43;4.10;;;24.80;27.90;;;;;;5109612;28;20483;-78
2022/06/15 08:54:55;;;;;;;5.67;4.27;;;25.10;26.60;;;;;;5105882;28;20460;-79
2022/06/15 08:57:32;;;;;;;8.37;4.30;;;25.30;25.60;;;;;;5107719;28;20476;-77
2022/06/15 09:00:04;;;;;;;4.87;4.37;;;25.50;24.60;;;;;;5105123;28;20523;-80
2022/06/15 09:02:38;;;;;;;5.37;4.60;;;25.50;25.60;;;;;;5106083;28;20435;-79
2022/06/15 09:05:19;;;;;;;4.50;4.10;;;25.60;25.70;;;;;;5102752;28;20483;-78
2022/06/15 09:08:19;;;;;;;7.77;3.73;;;25.60;25.80;;;;;;5107697;28;20452;-77
2022/06/15 09:10:52;;;;;;;8.53;4.47;;;25.80;25.30;;;;;;5111789;28;20481;-78
2022/06/15 09:13:43;;;;;;;5.17;4.10;;;26.00;24.80;;;;;;5109780;28;20550;-78
2022/06/15 09:16:19;;;;;;;11.27;3.67;;;26.00;24.40;;;;;;5108129;28;20445;-79
2022/06/15 09:18:49;;;;;;;4.53;3.70;;;26.00;23.90;;;;;;5109379;28;20449;-78
2022/06/15 09:21:19;;;;;;;4.33;3.90;;;26.00;23.90;;;;;;5105459;28;20521;-80
2022/06/15 09:23:52;;;;;;;3.40;3.10;;;26.20;23.60;;;;;;5105688;28;20447;-80
2022/06/15 09:26:22;;;;;;;5.40;3.50;;;26.30;22.80;;;;;;5106870;28;20981;-77
2022/06/15 09:28:54;;;;;;;3.90;3.50;;;26.20;23.50;;;;;;5106941;28;20467;-78
2022/06/15 09:31:25;;;;;;;4.03;3.67;;;26.30;22.30;;;;;;5106068;28;20461;-78
2022/06/15 09:33:56;;;;;;;5.50;3.90;;;26.50;23.30;;;;;;5105023;28;20984;-78
2022/06/15 09:36:27;;;;;;;5.47;4.17;;;26.60;23.50;;;;;;5106315;28;20511;-78
2022/06/15 09:38:56;;;;;;;4.03;3.47;;;26.50;23.30;;;;;;5110775;28;20472;-78
2022/06/15 09:41:27;;;;;;;4.93;4.47;;;26.60;23.60;;;;;;5108219;28;20557;-78
2022/06/15 09:44:06;;;;;;;4.70;4.23;;;26.80;23.30;;;;;;5107255;28;20448;-77
2022/06/15 09:46:44;;;;;;;4.83;4.43;;;27.20;23.40;;;;;;5105808;28;20871;-77
2022/06/15 09:49:31;;;;;;;7.03;5.10;;;27.50;22.90;;;;;;5105524;28;20463;-78
2022/06/15 09:52:06;;;;;;;4.53;3.90;;;27.60;22.90;;;;;;5101693;28;20410;-77
2022/06/15 09:54:46;;;;;;;6.73;4.23;;;27.70;22.40;;;;;;5098121;28;20520;-77
2022/06/15 09:57:14;;;;;;;16.63;4.87;;;27.80;22.00;;;;;;5103149;28;20473;-79
2022/06/15 09:59:42;;;;;;;6.83;4.03;;;27.90;21.60;;;;;;5104532;28;20509;-78
2022/06/15 10:02:27;;;;;;;6.10;4.63;;;27.80;21.90;;;;;;5100486;28;20954;-78
2022/06/15 10:04:55;;;;;;;4.80;4.30;;;27.70;21.50;;;;;;5100866;28;20467;-78
2022/06/15 10:07:28;;;;;;;5.07;4.57;;;27.70;22.70;;;;;;5100924;28;21238;-78
2022/06/15 10:10:25;;;;;;;5.80;4.83;;;27.70;21.70;;;;;;5102282;28;20476;-80
2022/06/15 10:12:59;;;;;;;6.50;4.07;;;27.70;21.90;;;;;;5103952;28;20479;-78
2022/06/15 10:15:34;;;;;;;5.70;4.30;;;27.80;21.80;;;;;;5103783;28;20490;-79
2022/06/15 10:18:15;;;;;;;6.33;4.63;;;27.80;22.00;;;;;;5104102;28;20573;-77
2022/06/15 10:20:55;;;;;;;5.73;4.70;;;27.70;21.70;;;;;;5103674;28;20460;-78
2022/06/15 10:23:24;;;;;;;7.73;4.87;;;27.60;22.60;;;;;;5103373;28;20466;-79
2022/06/15 10:25:56;;;;;;;6.90;4.03;;;27.80;22.00;;;;;;5103598;28;20523;-79
2022/06/15 10:28:26;;;;;;;4.93;4.43;;;27.70;22.20;;;;;;5104572;28;20566;-81
2022/06/15 10:31:00;;;;;;;8.10;4.10;;;27.80;22.00;;;;;;5107238;28;20926;-80
2022/06/15 10:33:37;;;;;;;6.90;4.37;;;28.10;22.30;;;;;;5109524;28;20509;-79
2022/06/15 10:36:16;;;;;;;5.10;4.60;;;28.30;21.80;;;;;;5107693;28;20444;-79
2022/06/15 10:38:46;;;;;;;8.07;4.33;;;28.40;21.40;;;;;;5110453;28;20460;-80
2022/06/15 10:44:02;;;;;;;4.90;4.40;;;28.40;20.60;;;;;;5109748;28;20419;-78
2022/06/15 10:49:29;;;;;;;7.23;4.83;;;28.60;21.30;;;;;;5020677;28;20479;-78
2022/06/15 10:51:56;;;;;;;4.60;4.20;;;28.60;21.00;;;;;;5019027;28;20448;-77
2022/06/15 11:02:06;;;;;;;4.80;4.30;;;28.90;20.60;;;;;;5017846;28;20619;-78
2022/06/15 11:03:12;;;;;;;6.83;4.50;;;29.20;20.00;;;;;;5036130;28;20448;-77
2022/06/15 11:05:40;;;;;;;5.23;4.50;;;29.10;20.20;;;;;;5037776;28;20465;-79
2022/06/15 11:08:15;;;;;;;6.20;4.37;;;29.00;20.20;;;;;;5035874;28;20469;-77
2022/06/15 11:10:44;;;;;;;9.83;4.70;;;28.70;20.30;;;;;;5035058;28;20448;-77
2022/06/15 11:13:30;;;;;;;7.03;4.40;;;29.00;20.10;;;;;;5032246;28;20513;-77
2022/06/15 11:18:45;;;;;;;8.07;4.80;;;29.40;18.90;;;;;;5018578;28;20511;-77
2022/06/15 11:21:15;;;;;;;4.57;3.93;;;29.30;20.00;;;;;;5020593;28;20451;-77
2022/06/15 11:23:52;;;;;;;8.60;4.77;;;29.40;20.10;;;;;;5024497;28;20460;-78
2022/06/15 11:29:42;;;;;;;5.40;4.53;;;28.80;20.60;;;;;;5023151;28;20431;-78
2022/06/15 11:32:22;;;;;;;5.37;4.10;;;28.60;21.10;;;;;;5028718;28;20444;-78
2022/06/15 11:34:55;;;;;;;6.13;4.80;;;28.70;21.20;;;;;;5031044;28;20484;-79
2022/06/15 11:37:28;;;;;;;7.63;4.40;;;29.00;20.80;;;;;;5022002;28;20900;-78
2022/06/15 11:40:02;;;;;;;4.70;4.30;;;29.40;20.00;;;;;;5020197;28;20461;-78
2022/06/15 11:42:30;;;;;;;6.03;4.50;;;29.60;19.70;;;;;;5019414;28;20458;-78
2022/06/15 11:45:01;;;;;;;4.73;3.80;;;29.60;19.30;;;;;;5020283;28;20512;-80
2022/06/15 11:47:35;;;;;;;6.33;4.27;;;29.60;19.20;;;;;;5021791;28;20491;-78
2022/06/15 11:50:11;;;;;;;7.00;4.27;;;29.80;18.90;;;;;;5023259;28;20439;-78
2022/06/15 11:52:49;;;;;;;4.70;4.30;;;30.00;18.50;;;;;;5021453;28;20460;-78
2022/06/15 11:55:28;;;;;;;4.23;3.90;;;30.10;18.60;;;;;;5020031;28;20891;-77
2022/06/15 11:58:18;;;;;;;5.07;3.73;;;30.00;18.50;;;;;;5021604;28;20482;-79
2022/06/15 12:00:55;;;;;;;4.20;3.80;;;30.00;18.50;;;;;;5019501;28;20432;-78
2022/06/15 12:03:48;;;;;;;5.20;4.70;;;30.00;18.50;;;;;;5026288;28;20430;-79
2022/06/15 12:06:24;;;;;;;4.50;4.10;;;30.00;18.50;;;;;;5023422;28;20467;-80
2022/06/15 12:08:59;;;;;;;4.63;4.23;;;29.90;18.50;;;;;;5036376;28;20459;-79
2022/06/15 12:14:27;;;;;;;5.47;3.70;;;30.00;18.20;;;;;;5035679;28;20527;-78
2022/06/15 12:17:00;;;;;;;5.33;3.97;;;30.00;18.50;;;;;;5035113;28;20449;-77
2022/06/15 12:19:36;;;;;;;5.43;3.53;;;30.30;18.40;;;;;;5037031;28;20442;-77
2022/06/15 12:22:09;;;;;;;4.30;3.80;;;30.40;17.10;;;;;;5036037;28;20486;-77
2022/06/15 12:24:44;;;;;;;6.67;3.37;;;30.20;16.50;;;;;;5034636;28;20473;-78
2022/06/15 12:27:17;;;;;;;4.70;4.07;;;29.60;17.00;;;;;;5033116;28;20462;-78
2022/06/15 12:29:50;;;;;;;5.53;3.60;;;29.70;17.30;;;;;;5035599;28;20539;-77
2022/06/15 12:32:34;;;;;;;6.27;3.10;;;29.90;16.60;;;;;;5035506;28;20467;-77
2022/06/15 12:35:12;;;;;;;5.20;3.73;;;29.80;15.80;;;;;;5034615;28;20460;-78
2022/06/15 12:37:47;;;;;;;3.63;3.10;;;30.10;15.70;;;;;;5023732;28;20507;-77
2022/06/15 12:40:21;;;;;;;8.90;3.40;;;30.10;14.20;;;;;;5022335;28;20447;-78
2022/06/15 12:42:52;;;;;;;4.80;3.13;;;30.30;14.30;;;;;;5019366;28;20452;-77
2022/06/15 12:45:23;;;;;;;3.47;3.17;;;30.60;13.60;;;;;;5022126;28;20455;-78
2022/06/15 12:47:56;;;;;;;4.43;3.00;;;30.70;12.50;;;;;;5031758;28;20492;-78
2022/06/15 12:50:44;;;;;;;3.97;2.70;;;30.70;12.70;;;;;;5027196;28;20493;-77
2022/06/15 12:53:27;;;;;;;2.60;2.40;;;30.80;10.80;;;;;;5024016;28;20454;-77
2022/06/15 12:56:04;;;;;;;2.80;2.40;;;30.90;10.20;;;;;;5016971;28;20861;-77
2022/06/15 12:58:45;;;;;;;3.40;3.10;;;30.80;10.20;;;;;;5019486;28;20493;-77
2022/06/15 13:01:15;;;;;;;2.53;2.33;;;30.70;10.10;;;;;;5016767;28;20795;-77
2022/06/15 13:03:59;;;;;;;2.20;2.00;;;30.80;9.10;;;;;;5015482;28;20445;-76
2022/06/15 13:06:29;;;;;;;2.90;2.20;;;30.80;7.40;;;;;;5027454;28;20453;-77
2022/06/15 13:09:18;;;;;;;2.80;1.80;;;30.80;8.00;;;;;;5017490;28;20480;-78
2022/06/15 13:11:53;;;;;;;2.23;2.03;;;30.80;6.60;;;;;;5017290;28;20537;-78
2022/06/15 13:14:23;;;;;;;3.07;1.80;;;30.80;5.30;;;;;;5017841;28;20482;-79
2022/06/15 13:17:10;;;;;;;2.13;1.37;;;30.80;6.40;;;;;;5018309;28;20488;-78
2022/06/15 13:19:42;;;;;;;3.00;1.47;;;30.80;3.60;;;;;;5021300;28;20522;-81
2022/06/15 13:22:12;;;;;;;1.60;1.37;;;30.70;1.10;;;;;;5017057;28;20908;-78
2022/06/15 13:24:56;;;;;;;2.07;1.60;;;30.70;1.10;;;;;;5016579;28;20451;-78
2022/06/15 13:27:27;;;;;;;2.03;1.20;;;30.80;1.60;;;;;;5015614;28;20983;-78
2022/06/15 13:30:17;;;;;;;2.83;1.57;;;30.90;1.20;;;;;;5017192;28;20513;-78
2022/06/15 13:33:02;;;;;;;2.07;1.50;;;30.70;2.70;;;;;;5015587;28;20472;-77
2022/06/15 13:35:34;;;;;;;2.10;2.00;;;30.90;2.90;;;;;;5014885;28;20534;-77
2022/06/15 13:38:05;;;;;;;5.47;1.80;;;31.10;4.60;;;;;;5014934;28;20480;-77
2022/06/15 13:41:08;;;;;;;2.23;2.03;;;31.20;5.10;;;;;;5017189;28;21016;-77